ADDS METAR Data INFO
IDs: Format: Raw Decoded Include TAF

Data at: 1307 UTC 11 Dec 2017

PARC 111256Z AUTO 02007KT 10SM CLR M08/M09 A2946 RMK AO2 SLP036 T10781089 FZRANO
PARC 110956Z AUTO 35008KT 10SM OVC026 M07/M08 A2959 RMK AO2 SLP083 T10671078 FZRANO
PARC 110856Z AUTO 35010KT 10SM OVC024 M07/M08 A2963 RMK AO2 SLP097 T10721083 58028 FZRANO
PARC 110756Z AUTO 30007KT 8SM OVC018 M08/M09 A2968 RMK AO2 SLP117 T10781089 410781244 FZRANO
PARC 110656Z AUTO 00000KT 9SM OVC020 M08/M09 A2970 RMK AO2 SLP125 T10781089 FZRANO
PARC 110556Z AUTO 30005KT 10SM OVC020 M08/M09 A2972 RMK AO2 SLP134 60001 T10831094 11083 21100 56016 FZRANO
PARC 110456Z AUTO 36004KT 10SM OVC022 M09/M10 A2973 RMK AO2 SLP138 T10891100 FZRANO
PARC 110256Z AUTO 31004KT 9SM -SN BKN022 OVC027 M09/M11 A2977 RMK AO2 SLP155 P0000 60001 T10941111 50004 FZRANO
PARC 110156Z AUTO 00000KT 3SM -SN BR OVC029 M10/M11 A2977 RMK AO2 SLP159 P0000 T11001111 FZRANO
PARC 110056Z AUTO 23003KT 7SM -SN OVC027 M10/M12 A2977 RMK AO2 SLP159 P0001 T11001117 FZRANO
PARC 102327Z AUTO 01004KT 3SM -SN BR SCT015 OVC028 M10/M12 A2975 RMK AO2 P0000 FZRANO
PARC 102318Z AUTO 36004KT 1 1/4SM -SN BR SCT015 OVC030 M11/M12 A2975 RMK AO2 P0000 FZRANO
PARC 102312Z AUTO 35005KT 3/4SM -SN BR BKN015 OVC030 M11/M12 A2975 RMK AO2 P0000 FZRANO
PARC 102306Z AUTO 34004KT 1/2SM -SN FZFG BKN013 OVC030 M11/M12 A2976 RMK AO2 P0000 FZRANO
PARC 102302Z AUTO 34004KT 3/4SM -SN BR SCT013 OVC030 M11/M12 A2976 RMK AO2 P0000 FZRANO
PARC 102256Z AUTO 35003KT 1 3/4SM -SN BR FEW015 OVC030 M11/M12 A2976 RMK AO2 VIS 3/4V4 SLP155 P0000 T11061117 FZRANO
PARC 102241Z AUTO 36005KT 4SM -SN BR OVC030 M11/M12 A2976 RMK AO2 P0000 FZRANO
PARC 102217Z AUTO 36005KT 6SM -SN BR OVC028 M12/M13 A2976 RMK AO2 P0000 FZRANO
PARC 102156Z AUTO 36004KT 5SM -SN BR OVC030 M12/M14 A2977 RMK AO2 SLP160 P0000 T11221139 FZRANO
PARC 102148Z AUTO 36003KT 2 1/2SM -SN BR OVC030 M12/M14 A2977 RMK AO2 VIS 2V5 P0000 FZRANO
PARC 102141Z AUTO 36003KT 3SM -SN BR BKN027 OVC033 M12/M14 A2977 RMK AO2 P0000 FZRANO
PARC 102127Z AUTO 36004KT 2SM -SN BR BKN025 OVC033 M13/M14 A2976 RMK AO2 P0000 FZRANO
PARC 102115Z AUTO 35005KT 1 1/4SM -SN BR OVC025 M13/M14 A2976 RMK AO2 P0000 FZRANO
PARC 102056Z AUTO 36003KT 2SM -SN BR OVC023 M13/M15 A2976 RMK AO2 VIS 1 1/2V3 SNB04 SLP161 P0000 60000 T11331150 53008 FZRANO
PARC 101956Z AUTO 36006KT 10SM OVC023 M14/M16 A2976 RMK AO2 SLP159 T11391156 FZRANO
PARC 101856Z AUTO 35008KT 10SM OVC021 M15/M17 A2974 RMK AO2 SLP154 T11501167 FZRANO
PARC 101813Z AUTO 36005KT 10SM BKN023 OVC030 M17/M19 A2974 RMK AO2 FZRANO
PARC 101756Z AUTO 33006KT 10SM OVC030 M18/M19 A2974 RMK AO2 SLP156 60000 T11781194 11178 21244 53010 FZRANO
PARC 101656Z AUTO 00000KT 10SM CLR M18/M21 A2973 RMK AO2 SNB39E49 SLP151 P0000 T11831206 FZRANO
PARC 101556Z AUTO 35006KT 10SM CLR M20/M22 A2971 RMK AO2 SLP148 T12001222 FZRANO
PARC 101456Z AUTO 35006KT 10SM CLR M21/M22 A2971 RMK AO2 SLP150 T12061222 57005 FZRANO
PARC 101356Z AUTO 33005KT 9SM CLR M22/M24 A2971 RMK AO2 SLP156 T12221244 FZRANO
PARC 101256Z AUTO 35003KT 10SM CLR M23/M25 A2972 RMK AO2 SLP157 T12281250 FZRANO
PARC 101156Z AUTO 01003KT 10SM CLR M23/M26 A2972 RMK AO2 SLP161 T12331261 11206 21233 58005 FZRANO
PARC 101008Z AUTO 00000KT 10SM BKN004 M22/M24 A2974 RMK AO2 FZRANO
PARC 100956Z AUTO 30003KT 10SM BKN006 M23/M25 A2974 RMK AO2 SLP165 T12281250 FZRANO
PARC 100856Z AUTO 00000KT 10SM SCT005 M22/M24 A2973 RMK AO2 SLP161 T12221244 56008 FZRANO
PARC 100816Z AUTO 26004KT 10SM BKN005 M23/M25 A2974 RMK AO2 FZRANO
PARC 100756Z AUTO VRB04KT 10SM SCT005 M23/M25 A2974 RMK AO2 SLP165 T12281250 411441250 FZRANO
PARC 100656Z AUTO 36003KT 10SM SCT008 M22/M24 A2974 RMK AO2 SLP164 T12171239 FZRANO
PARC 100646Z AUTO 34005KT 10SM FEW008 M22/M24 A2974 RMK AO2 FZRANO
PARC 100619Z AUTO 34004KT 10SM FEW008 OVC014 M21/M24 A2976 RMK AO2 FZRANO
PARC 100556Z AUTO 32004KT 10SM OVC014 M21/M23 A2976 RMK AO2 SLP166 60000 T12061233 11200 21250 58007 FZRANO
PARC 100456Z AUTO 33004KT 10SM OVC012 M21/M23 A2977 RMK AO2 SLP168 T12061228 FZRANO
PARC 100356Z AUTO 31006KT 10SM OVC012 M21/M23 A2978 RMK AO2 SLP171 T12061228 FZRANO
PARC 100256Z AUTO 33005KT 10SM OVC012 M23/M25 A2978 RMK AO2 SNB08E20 SLP175 P0000 60000 T12281250 56003 FZRANO
PARC 100230Z AUTO 34004KT 10SM BKN012 OVC017 M24/M26 A2979 RMK AO2 SNB08E20 P0000 FZRANO
PARC 100156Z AUTO 27004KT 10SM BKN017 M25/M27 A2979 RMK AO2 SLP179 T12501272 FZRANO